Time;durP1;ratioP1;P1;durP2;ratioP2;P2;SDS_P1;SDS_P2;PMS_P1;PMS_P2;Temp;Humidity;BMP_temperature;BMP_pressure;BME280_temperature;BME280_humidity;BME280_pressure;Samples;Min_cycle;Max_cycle;Signal;HPM_P1;HPM_P2
2023/12/24 00:01:16;;;;;;;5.40;1.13;;;11.60;99.90;;;;;;5067994;28;20424;-86
2023/12/24 00:03:42;;;;;;;3.50;0.93;;;11.50;99.90;;;;;;5072350;28;20209;-89
2023/12/24 00:06:07;;;;;;;4.27;1.20;;;11.50;99.90;;;;;;5073070;28;20578;-89
2023/12/24 00:08:35;;;;;;;6.20;1.23;;;11.50;99.90;;;;;;5073332;28;20650;-88
2023/12/24 00:11:00;;;;;;;5.37;1.00;;;11.50;99.90;;;;;;5072934;28;20256;-90
2023/12/24 00:13:26;;;;;;;3.87;0.80;;;11.50;99.90;;;;;;5072814;28;20214;-87
2023/12/24 00:15:52;;;;;;;3.50;1.00;;;11.50;99.90;;;;;;5072265;28;20180;-84
2023/12/24 00:18:21;;;;;;;3.73;1.10;;;11.40;99.90;;;;;;5073326;28;20166;-88
2023/12/24 00:20:47;;;;;;;3.30;1.00;;;11.40;99.90;;;;;;5072957;28;20798;-89
2023/12/24 00:23:12;;;;;;;4.93;1.30;;;11.40;99.90;;;;;;5073126;28;20307;-89
2023/12/24 00:25:40;;;;;;;4.57;1.17;;;11.30;99.90;;;;;;5071536;28;20205;-89
2023/12/24 00:28:06;;;;;;;4.00;1.50;;;11.30;99.90;;;;;;5073271;28;20234;-87
2023/12/24 00:30:32;;;;;;;3.97;1.40;;;11.20;99.90;;;;;;5071709;28;20637;-87
2023/12/24 00:32:58;;;;;;;4.30;1.77;;;11.20;99.90;;;;;;5072892;28;20228;-86
2023/12/24 00:35:25;;;;;;;3.23;1.60;;;11.30;99.90;;;;;;5072509;28;20175;-89
2023/12/24 00:37:51;;;;;;;3.67;1.43;;;11.30;99.90;;;;;;5074117;28;20248;-85
2023/12/24 00:40:18;;;;;;;3.83;1.40;;;11.40;99.90;;;;;;5072364;28;20634;-87
2023/12/24 00:42:46;;;;;;;6.60;1.63;;;11.40;99.90;;;;;;5073342;28;20211;-88
2023/12/24 00:45:13;;;;;;;3.00;1.27;;;11.40;99.90;;;;;;5072041;28;20245;-88
2023/12/24 00:47:40;;;;;;;2.70;1.50;;;11.40;99.90;;;;;;5072199;28;20273;-86
2023/12/24 00:50:07;;;;;;;4.43;1.50;;;11.50;99.90;;;;;;5072820;28;20711;-89
2023/12/24 00:52:34;;;;;;;5.23;1.43;;;11.40;99.90;;;;;;5072784;28;20170;-87
2023/12/24 00:55:00;;;;;;;3.60;1.53;;;11.40;99.90;;;;;;5072983;28;20177;-88
2023/12/24 00:57:25;;;;;;;3.27;1.50;;;11.40;99.90;;;;;;5072263;28;20182;-88
2023/12/24 00:59:51;;;;;;;4.73;2.30;;;11.30;99.90;;;;;;5071919;28;20196;-89
2023/12/24 01:02:17;;;;;;;5.37;2.60;;;11.30;99.90;;;;;;5071984;28;20226;-87
2023/12/24 01:04:43;;;;;;;4.90;2.50;;;11.30;99.90;;;;;;5073257;28;20275;-87
2023/12/24 01:07:08;;;;;;;5.57;2.57;;;11.20;99.90;;;;;;5072596;28;20217;-84
2023/12/24 01:09:36;;;;;;;4.97;2.30;;;11.20;99.90;;;;;;5070863;28;20186;-83
2023/12/24 01:12:02;;;;;;;3.90;1.70;;;11.20;99.90;;;;;;5072388;28;20218;-85
2023/12/24 01:14:28;;;;;;;2.97;1.70;;;11.20;99.90;;;;;;5073292;28;20183;-87
2023/12/24 01:16:55;;;;;;;1.73;1.20;;;11.20;99.90;;;;;;5072289;28;20168;-87
2023/12/24 01:19:22;;;;;;;3.53;1.60;;;11.20;99.90;;;;;;5073561;28;20256;-87
2023/12/24 01:21:48;;;;;;;3.77;1.40;;;11.10;99.90;;;;;;5072393;28;20164;-87
2023/12/24 01:24:14;;;;;;;2.03;1.50;;;11.20;99.90;;;;;;5072582;28;20306;-89
2023/12/24 01:26:40;;;;;;;2.77;1.60;;;11.20;99.90;;;;;;5072921;28;20623;-86
2023/12/24 01:29:06;;;;;;;2.27;1.80;;;11.20;99.90;;;;;;5071182;28;20177;-87
2023/12/24 01:31:31;;;;;;;4.63;1.67;;;11.10;99.90;;;;;;5071577;28;20170;-83
2023/12/24 01:33:57;;;;;;;5.30;1.80;;;11.10;99.90;;;;;;5072408;28;20264;-87
2023/12/24 01:36:23;;;;;;;2.20;1.60;;;11.20;99.90;;;;;;5074217;28;20199;-88
2023/12/24 01:38:49;;;;;;;2.97;1.53;;;11.10;99.90;;;;;;5076427;28;20191;-88
2023/12/24 01:41:15;;;;;;;2.83;1.70;;;11.10;99.90;;;;;;5076268;28;20168;-87
2023/12/24 01:43:41;;;;;;;4.00;1.93;;;11.10;99.90;;;;;;5076018;28;20200;-87
2023/12/24 01:46:13;;;;;;;4.27;2.00;;;11.10;99.90;;;;;;5076923;28;20177;-88
2023/12/24 01:48:39;;;;;;;4.37;2.00;;;11.10;99.90;;;;;;5075890;28;20273;-88
2023/12/24 01:51:05;;;;;;;3.07;1.73;;;11.10;99.90;;;;;;5076592;28;20165;-87
2023/12/24 01:53:32;;;;;;;2.50;1.60;;;11.00;99.90;;;;;;5077130;28;20169;-87
2023/12/24 01:56:05;;;;;;;3.70;1.63;;;11.00;99.90;;;;;;5075943;28;20180;-87
2023/12/24 01:58:31;;;;;;;2.13;1.40;;;11.00;99.90;;;;;;5075678;28;20165;-88
2023/12/24 02:00:57;;;;;;;2.87;1.33;;;11.00;99.90;;;;;;5076157;28;20223;-88
2023/12/24 02:03:23;;;;;;;4.07;1.40;;;10.90;99.90;;;;;;5075825;28;20699;-88
2023/12/24 02:05:50;;;;;;;3.33;1.40;;;10.90;99.90;;;;;;5074920;28;20229;-88
2023/12/24 02:08:21;;;;;;;2.80;1.17;;;11.00;99.90;;;;;;5075325;28;20173;-83
2023/12/24 02:10:48;;;;;;;2.73;1.10;;;10.90;99.90;;;;;;5075797;28;20178;-88
2023/12/24 02:13:14;;;;;;;3.13;0.70;;;10.90;99.90;;;;;;5075174;28;20181;-87
2023/12/24 02:15:40;;;;;;;0.90;0.80;;;10.90;99.90;;;;;;5074762;28;20272;-88
2023/12/24 02:18:09;;;;;;;1.47;0.70;;;10.90;99.90;;;;;;5075525;28;20268;-88
2023/12/24 02:20:35;;;;;;;1.43;0.87;;;10.90;99.90;;;;;;5075495;28;20227;-88
2023/12/24 02:23:01;;;;;;;2.37;1.00;;;10.90;99.90;;;;;;5075889;28;20176;-88
2023/12/24 02:25:27;;;;;;;1.50;1.00;;;10.90;99.90;;;;;;5075595;28;20212;-88
2023/12/24 02:28:01;;;;;;;2.33;1.10;;;10.90;99.90;;;;;;5075076;28;20232;-87
2023/12/24 02:30:33;;;;;;;1.73;0.80;;;10.90;99.90;;;;;;5074687;28;20694;-87
2023/12/24 02:33:01;;;;;;;1.90;1.10;;;11.00;99.90;;;;;;5073981;28;20322;-87
2023/12/24 02:35:31;;;;;;;2.07;1.00;;;10.90;99.90;;;;;;5074583;28;20176;-88
2023/12/24 02:37:57;;;;;;;1.13;1.00;;;10.90;99.90;;;;;;5074732;28;20683;-88
2023/12/24 02:40:22;;;;;;;1.83;1.10;;;10.80;99.90;;;;;;5076627;28;20173;-88
2023/12/24 02:42:48;;;;;;;2.80;1.00;;;10.80;99.90;;;;;;5078350;28;20213;-87
2023/12/24 02:45:14;;;;;;;1.10;1.00;;;10.80;99.90;;;;;;5075067;28;20215;-88
2023/12/24 02:47:39;;;;;;;1.60;1.00;;;10.90;99.90;;;;;;5074179;28;20238;-86
2023/12/24 02:50:06;;;;;;;1.37;0.80;;;10.80;99.90;;;;;;5075172;28;20202;-86
2023/12/24 02:52:31;;;;;;;1.60;0.87;;;10.80;99.90;;;;;;5074403;28;20191;-85
2023/12/24 02:54:57;;;;;;;1.43;0.80;;;10.80;99.90;;;;;;5074293;28;20692;-87
2023/12/24 02:57:23;;;;;;;0.97;0.80;;;10.80;99.90;;;;;;5074921;28;20649;-88
2023/12/24 02:59:48;;;;;;;2.87;1.00;;;10.80;99.90;;;;;;5074379;28;20644;-83
2023/12/24 03:02:14;;;;;;;3.00;0.90;;;10.90;99.90;;;;;;5074306;28;20207;-87
2023/12/24 03:04:40;;;;;;;2.13;1.10;;;10.90;99.90;;;;;;5074014;28;20721;-86
2023/12/24 03:07:05;;;;;;;1.83;0.90;;;10.80;99.90;;;;;;5074293;28;20172;-87
2023/12/24 03:09:31;;;;;;;1.53;0.87;;;10.80;99.90;;;;;;5075465;28;20169;-88
2023/12/24 03:11:57;;;;;;;2.03;0.80;;;10.80;99.90;;;;;;5075270;28;20655;-89
2023/12/24 03:14:22;;;;;;;2.60;0.90;;;10.80;99.90;;;;;;5075706;28;20184;-90
2023/12/24 03:16:48;;;;;;;3.60;1.07;;;10.80;99.90;;;;;;5074675;28;20169;-86
2023/12/24 03:19:14;;;;;;;2.10;0.87;;;10.90;99.90;;;;;;5073836;28;20197;-85
2023/12/24 03:21:41;;;;;;;1.43;0.70;;;10.90;99.90;;;;;;5073302;28;20617;-88
2023/12/24 03:24:08;;;;;;;1.87;1.07;;;10.80;99.90;;;;;;5073760;28;20239;-86
2023/12/24 03:26:33;;;;;;;1.87;0.80;;;10.90;99.90;;;;;;5077167;28;20165;-83
2023/12/24 03:29:00;;;;;;;2.10;0.77;;;10.90;99.90;;;;;;5081704;28;20727;-86
2023/12/24 03:31:26;;;;;;;1.87;0.90;;;10.90;99.90;;;;;;5082577;28;20173;-83
2023/12/24 03:33:53;;;;;;;1.53;0.80;;;10.90;99.90;;;;;;5085362;28;20254;-88
2023/12/24 03:36:20;;;;;;;1.33;0.70;;;10.90;99.90;;;;;;5089466;28;20182;-86
2023/12/24 03:38:45;;;;;;;0.73;0.70;;;10.80;99.90;;;;;;5093059;28;20187;-91
2023/12/24 03:41:11;;;;;;;1.57;0.87;;;10.80;99.90;;;;;;5080671;28;20617;-90
2023/12/24 03:43:37;;;;;;;2.17;1.00;;;10.90;99.90;;;;;;5074142;28;20211;-88
2023/12/24 03:46:03;;;;;;;2.20;1.00;;;10.90;99.90;;;;;;5073852;28;20207;-87
2023/12/24 03:48:32;;;;;;;1.87;1.00;;;10.90;99.90;;;;;;5075390;28;20179;-85
2023/12/24 03:50:58;;;;;;;1.33;0.80;;;10.80;99.90;;;;;;5073857;28;20173;-88
2023/12/24 03:53:23;;;;;;;2.17;0.90;;;10.80;99.90;;;;;;5073462;28;20267;-88
2023/12/24 03:55:49;;;;;;;2.20;0.90;;;10.80;99.90;;;;;;5074241;28;20270;-87
2023/12/24 03:58:15;;;;;;;4.87;0.90;;;10.80;99.90;;;;;;5074412;28;20227;-86
2023/12/24 04:00:41;;;;;;;1.93;1.00;;;10.80;99.90;;;;;;5074390;28;20619;-88
2023/12/24 04:03:07;;;;;;;2.20;1.03;;;10.80;99.90;;;;;;5074923;28;20197;-91
2023/12/24 04:05:33;;;;;;;3.73;1.03;;;10.80;99.90;;;;;;5074015;28;20241;-90
2023/12/24 04:07:59;;;;;;;2.97;0.80;;;10.80;99.90;;;;;;5072884;28;20173;-88
2023/12/24 04:10:26;;;;;;;2.67;1.10;;;10.90;99.90;;;;;;5073601;28;20170;-87
2023/12/24 04:12:52;;;;;;;2.57;1.03;;;10.90;99.90;;;;;;5073258;28;20639;-88
2023/12/24 04:15:22;;;;;;;3.67;1.20;;;10.80;99.90;;;;;;5073557;28;20173;-84
2023/12/24 04:17:47;;;;;;;2.27;1.30;;;10.80;99.90;;;;;;5073350;28;20251;-90
2023/12/24 04:20:13;;;;;;;1.83;0.87;;;10.90;99.90;;;;;;5074411;28;20256;-88
2023/12/24 04:22:39;;;;;;;3.20;1.30;;;10.90;99.90;;;;;;5073012;28;20195;-85
2023/12/24 04:25:05;;;;;;;3.13;1.30;;;10.90;99.90;;;;;;5072985;28;20216;-89
2023/12/24 04:27:30;;;;;;;3.73;1.40;;;10.90;99.90;;;;;;5073349;28;20202;-87
2023/12/24 04:29:56;;;;;;;4.60;1.40;;;10.90;99.90;;;;;;5072713;28;20181;-88
2023/12/24 04:32:22;;;;;;;3.20;1.50;;;10.90;99.90;;;;;;5073232;28;20172;-88
2023/12/24 04:34:47;;;;;;;4.43;1.70;;;10.90;99.90;;;;;;5072837;28;20168;-88
2023/12/24 04:37:13;;;;;;;2.80;1.43;;;11.00;99.90;;;;;;5072591;28;20200;-85
2023/12/24 04:39:39;;;;;;;5.13;1.70;;;10.90;99.90;;;;;;5073725;28;20200;-88
2023/12/24 04:42:05;;;;;;;4.40;1.97;;;10.90;99.90;;;;;;5072894;28;20174;-88
2023/12/24 04:44:30;;;;;;;3.90;1.70;;;10.90;99.90;;;;;;5072936;28;20589;-87
2023/12/24 04:46:56;;;;;;;5.10;1.83;;;11.00;99.90;;;;;;5074037;28;20239;-89
2023/12/24 04:49:21;;;;;;;5.07;1.90;;;10.90;99.90;;;;;;5072477;28;20183;-87
2023/12/24 04:51:47;;;;;;;3.83;1.70;;;10.90;99.90;;;;;;5072319;28;20626;-85
2023/12/24 04:54:13;;;;;;;5.07;1.80;;;10.90;99.90;;;;;;5072001;28;20540;-87
2023/12/24 04:56:39;;;;;;;6.07;1.90;;;10.90;99.90;;;;;;5072417;28;20180;-88
2023/12/24 04:59:04;;;;;;;3.60;1.70;;;10.90;99.90;;;;;;5073554;28;20234;-87
2023/12/24 05:01:30;;;;;;;4.77;1.60;;;10.90;99.90;;;;;;5073215;28;20170;-89
2023/12/24 05:03:56;;;;;;;3.80;1.97;;;10.90;99.90;;;;;;5072641;28;20201;-87
2023/12/24 05:06:22;;;;;;;3.13;1.60;;;11.00;99.90;;;;;;5071985;28;20198;-87
2023/12/24 05:08:47;;;;;;;4.50;1.27;;;11.00;99.90;;;;;;5071572;28;20520;-88
2023/12/24 05:11:13;;;;;;;2.80;1.60;;;11.00;99.90;;;;;;5073022;28;20243;-88
2023/12/24 05:13:39;;;;;;;5.13;1.57;;;10.90;99.90;;;;;;5072496;28;20248;-87
2023/12/24 05:16:05;;;;;;;4.60;1.73;;;10.90;99.90;;;;;;5072195;28;20169;-89
2023/12/24 05:18:33;;;;;;;6.33;1.80;;;10.90;99.90;;;;;;5072227;28;20212;-87
2023/12/24 05:20:59;;;;;;;3.97;1.50;;;11.00;99.90;;;;;;5071467;28;20180;-82
2023/12/24 05:23:26;;;;;;;5.27;1.70;;;11.00;99.90;;;;;;5070990;28;20539;-88
2023/12/24 05:25:52;;;;;;;3.40;1.47;;;10.90;99.90;;;;;;5072347;28;20214;-83
2023/12/24 05:28:17;;;;;;;3.47;1.43;;;11.00;99.90;;;;;;5071869;28;20168;-86
2023/12/24 05:30:44;;;;;;;3.07;1.33;;;11.00;99.90;;;;;;5072535;28;20543;-89
2023/12/24 05:33:10;;;;;;;3.50;0.97;;;11.00;99.90;;;;;;5072193;28;20624;-83
2023/12/24 05:35:35;;;;;;;3.47;1.40;;;11.00;99.90;;;;;;5073320;28;20169;-88
2023/12/24 05:38:01;;;;;;;5.20;1.77;;;11.00;99.90;;;;;;5074801;28;20174;-89
2023/12/24 05:40:27;;;;;;;4.80;1.50;;;11.00;99.90;;;;;;5074730;28;20695;-89
2023/12/24 05:42:53;;;;;;;3.10;1.20;;;11.00;99.90;;;;;;5072397;28;20178;-87
2023/12/24 05:45:18;;;;;;;4.10;1.20;;;11.00;99.90;;;;;;5072154;28;20265;-88
2023/12/24 05:47:44;;;;;;;3.67;1.13;;;11.00;99.90;;;;;;5072184;28;20230;-87
2023/12/24 05:50:10;;;;;;;4.13;1.30;;;11.00;99.90;;;;;;5072238;28;20262;-85
2023/12/24 05:52:37;;;;;;;3.53;1.20;;;11.00;99.90;;;;;;5071820;28;20162;-88
2023/12/24 05:55:03;;;;;;;3.50;1.47;;;10.90;99.90;;;;;;5072037;28;20601;-88
2023/12/24 05:57:29;;;;;;;2.07;1.07;;;11.00;99.90;;;;;;5071468;28;20194;-86
2023/12/24 05:59:55;;;;;;;3.90;1.47;;;11.00;99.90;;;;;;5071946;28;20542;-84
2023/12/24 06:02:21;;;;;;;2.00;0.93;;;11.00;99.90;;;;;;5071713;28;20185;-88
2023/12/24 06:04:47;;;;;;;3.13;1.23;;;11.00;99.90;;;;;;5071901;28;20213;-86
2023/12/24 06:07:12;;;;;;;1.73;1.10;;;11.00;99.90;;;;;;5071275;28;20176;-88
2023/12/24 06:09:38;;;;;;;2.30;1.30;;;10.90;99.90;;;;;;5070984;28;20540;-88
2023/12/24 06:12:05;;;;;;;1.47;0.83;;;11.00;99.90;;;;;;5071600;28;20185;-88
2023/12/24 06:14:30;;;;;;;2.20;1.20;;;11.00;99.90;;;;;;5070826;28;20195;-85
2023/12/24 06:16:56;;;;;;;2.83;1.20;;;11.10;99.90;;;;;;5071232;28;20175;-87
2023/12/24 06:19:22;;;;;;;5.03;1.40;;;11.10;99.90;;;;;;5071394;28;20269;-88
2023/12/24 06:21:48;;;;;;;2.47;1.40;;;11.10;99.90;;;;;;5071013;28;20261;-83
2023/12/24 06:24:13;;;;;;;2.57;1.20;;;11.10;99.90;;;;;;5074722;28;20261;-87
2023/12/24 06:26:39;;;;;;;4.50;1.60;;;11.10;99.90;;;;;;5074532;28;20634;-86
2023/12/24 06:29:05;;;;;;;4.03;1.40;;;11.10;99.90;;;;;;5075086;28;20172;-84
2023/12/24 06:31:30;;;;;;;2.17;1.47;;;11.10;99.90;;;;;;5074495;28;20199;-88
2023/12/24 06:33:56;;;;;;;3.27;1.70;;;11.10;99.90;;;;;;5074387;28;20174;-84
2023/12/24 06:36:22;;;;;;;3.83;1.73;;;11.10;99.90;;;;;;5075322;28;20173;-88
2023/12/24 06:38:49;;;;;;;3.77;2.00;;;11.10;99.90;;;;;;5074599;28;20175;-82
2023/12/24 06:41:14;;;;;;;8.57;2.03;;;11.00;99.90;;;;;;5074435;28;20171;-89
2023/12/24 06:43:41;;;;;;;3.53;1.70;;;11.10;99.90;;;;;;5075002;28;20199;-87
2023/12/24 06:46:11;;;;;;;4.33;2.10;;;11.10;99.90;;;;;;5075322;28;20165;-86
2023/12/24 06:48:41;;;;;;;4.47;2.37;;;11.10;99.90;;;;;;5074547;28;20175;-84
2023/12/24 06:51:07;;;;;;;4.03;2.40;;;11.10;99.90;;;;;;5074737;28;20179;-87
2023/12/24 06:53:34;;;;;;;5.27;2.37;;;11.00;99.90;;;;;;5074804;28;20517;-89
2023/12/24 06:56:00;;;;;;;3.17;1.53;;;11.00;99.90;;;;;;5074521;28;20181;-84
2023/12/24 06:58:25;;;;;;;4.47;2.00;;;11.00;99.90;;;;;;5073879;28;20179;-85
2023/12/24 07:00:51;;;;;;;4.63;2.40;;;11.00;99.90;;;;;;5074385;28;20248;-86
2023/12/24 07:03:17;;;;;;;4.13;2.27;;;11.10;99.90;;;;;;5074038;28;20615;-89
2023/12/24 07:05:43;;;;;;;4.03;2.00;;;11.10;99.90;;;;;;5074832;28;20185;-86
2023/12/24 07:08:09;;;;;;;3.67;1.90;;;11.10;99.90;;;;;;5075164;28;20204;-83
2023/12/24 07:10:36;;;;;;;4.47;2.17;;;11.10;99.90;;;;;;5075502;28;20185;-83
2023/12/24 07:13:02;;;;;;;4.03;2.00;;;11.10;99.90;;;;;;5074842;28;20220;-88
2023/12/24 07:15:32;;;;;;;4.70;1.90;;;11.10;99.90;;;;;;5074261;28;20168;-88
2023/12/24 07:17:58;;;;;;;3.97;2.20;;;11.10;99.90;;;;;;5073496;28;20178;-87
2023/12/24 07:20:23;;;;;;;3.53;2.50;;;11.00;99.90;;;;;;5073952;28;20689;-88
2023/12/24 07:22:49;;;;;;;4.00;2.37;;;11.00;99.90;;;;;;5074162;28;20182;-83
2023/12/24 07:25:15;;;;;;;3.37;2.40;;;11.10;99.90;;;;;;5074456;28;20285;-85
2023/12/24 07:27:43;;;;;;;4.47;2.97;;;11.10;99.90;;;;;;5072953;28;20167;-84
2023/12/24 07:30:09;;;;;;;5.33;3.07;;;11.10;99.90;;;;;;5073490;28;20181;-90
2023/12/24 07:32:35;;;;;;;4.33;2.90;;;11.20;99.90;;;;;;5073672;28;20176;-86
2023/12/24 07:35:01;;;;;;;6.80;3.50;;;11.20;99.90;;;;;;5073672;28;20173;-84
2023/12/24 07:37:26;;;;;;;4.90;3.20;;;11.20;99.90;;;;;;5073290;28;20580;-83
2023/12/24 07:39:52;;;;;;;7.97;4.00;;;11.20;99.90;;;;;;5073544;28;20169;-84
2023/12/24 07:42:18;;;;;;;6.63;3.80;;;11.20;99.90;;;;;;5072894;28;20168;-87
2023/12/24 07:44:44;;;;;;;6.47;3.67;;;11.20;99.90;;;;;;5073394;28;20223;-88
2023/12/24 07:47:10;;;;;;;7.00;3.63;;;11.20;99.90;;;;;;5073524;28;20175;-84
2023/12/24 07:49:35;;;;;;;6.83;4.00;;;11.30;99.90;;;;;;5074760;28;20725;-83
2023/12/24 07:52:01;;;;;;;7.50;4.43;;;11.30;99.90;;;;;;5073637;28;20664;-84
2023/12/24 07:54:27;;;;;;;8.03;4.40;;;11.30;99.90;;;;;;5073596;28;20248;-84
2023/12/24 07:56:53;;;;;;;6.27;3.67;;;11.30;99.90;;;;;;5073645;28;20179;-87
2023/12/24 07:59:18;;;;;;;8.03;4.33;;;11.40;99.90;;;;;;5073006;28;20312;-85
2023/12/24 08:01:44;;;;;;;8.40;3.87;;;11.40;99.90;;;;;;5073206;28;20175;-87
2023/12/24 08:04:10;;;;;;;5.17;3.70;;;11.30;99.90;;;;;;5073375;28;20695;-87
2023/12/24 08:06:35;;;;;;;6.33;3.53;;;11.30;99.90;;;;;;5072800;28;20210;-89
2023/12/24 08:09:02;;;;;;;5.73;3.40;;;11.30;99.90;;;;;;5073697;28;20256;-88
2023/12/24 08:11:28;;;;;;;6.07;3.57;;;11.30;99.90;;;;;;5073378;28;20167;-88
2023/12/24 08:13:54;;;;;;;6.87;3.90;;;11.30;99.90;;;;;;5073137;28;20193;-89
2023/12/24 08:16:19;;;;;;;5.67;3.80;;;11.30;99.90;;;;;;5073372;28;20186;-88
2023/12/24 08:18:45;;;;;;;6.70;3.70;;;11.50;99.90;;;;;;5073204;28;20174;-90
2023/12/24 08:21:11;;;;;;;6.73;3.17;;;11.40;99.90;;;;;;5073232;28;20172;-84
2023/12/24 08:23:40;;;;;;;5.83;3.73;;;11.40;99.90;;;;;;5074840;28;20595;-81
2023/12/24 08:26:06;;;;;;;5.50;3.37;;;11.40;99.90;;;;;;5076033;28;20211;-85
2023/12/24 08:28:32;;;;;;;7.60;3.57;;;11.40;99.90;;;;;;5072463;28;20209;-85
2023/12/24 08:30:57;;;;;;;5.83;3.60;;;11.40;99.90;;;;;;5073267;28;20171;-85
2023/12/24 08:33:23;;;;;;;7.67;3.50;;;11.50;99.90;;;;;;5072526;28;20228;-87
2023/12/24 08:35:49;;;;;;;6.93;3.50;;;11.50;99.90;;;;;;5073215;28;20169;-88
2023/12/24 08:38:14;;;;;;;6.50;3.30;;;11.50;99.90;;;;;;5071547;28;20220;-88
2023/12/24 08:40:40;;;;;;;5.87;3.23;;;11.60;99.90;;;;;;5072328;28;20175;-84
2023/12/24 08:43:06;;;;;;;5.43;3.40;;;11.50;99.90;;;;;;5072197;28;20270;-90
2023/12/24 08:45:31;;;;;;;4.37;3.17;;;11.50;99.90;;;;;;5071753;28;20211;-88
2023/12/24 08:47:57;;;;;;;7.80;3.53;;;11.50;99.90;;;;;;5071889;28;20168;-86
2023/12/24 08:50:23;;;;;;;5.23;3.57;;;11.50;99.90;;;;;;5072381;28;20183;-86
2023/12/24 08:52:49;;;;;;;5.00;2.90;;;11.50;99.90;;;;;;5072533;28;20172;-83
2023/12/24 08:55:18;;;;;;;7.13;3.70;;;11.50;99.90;;;;;;5072187;28;20237;-83
2023/12/24 08:57:43;;;;;;;5.13;3.07;;;11.60;99.90;;;;;;5071459;28;20176;-88
2023/12/24 09:00:12;;;;;;;7.63;3.00;;;11.60;99.90;;;;;;5072230;28;20650;-87
2023/12/24 09:02:39;;;;;;;4.10;3.03;;;11.60;99.90;;;;;;5072478;28;20237;-85
2023/12/24 09:05:07;;;;;;;5.53;3.17;;;11.70;99.90;;;;;;5072658;28;20212;-85
2023/12/24 09:07:34;;;;;;;6.57;3.90;;;11.70;99.90;;;;;;5072457;28;20288;-90
2023/12/24 09:10:01;;;;;;;6.17;2.87;;;11.70;99.90;;;;;;5070828;28;20194;-85
2023/12/24 09:12:27;;;;;;;5.40;3.67;;;11.70;99.90;;;;;;5054962;28;20171;-90
2023/12/24 09:14:53;;;;;;;4.77;3.07;;;11.80;99.90;;;;;;5052288;28;20259;-85
2023/12/24 09:17:19;;;;;;;7.27;3.40;;;11.70;99.90;;;;;;5052138;28;20271;-87
2023/12/24 09:19:44;;;;;;;6.03;3.10;;;11.70;99.90;;;;;;5052673;28;20657;-88
2023/12/24 09:22:10;;;;;;;4.83;3.53;;;11.80;99.90;;;;;;5052670;28;20175;-85
2023/12/24 09:24:36;;;;;;;8.50;2.93;;;11.80;99.90;;;;;;5067685;28;20302;-91
2023/12/24 09:27:02;;;;;;;7.43;3.47;;;11.90;99.90;;;;;;5072302;28;20175;-87
2023/12/24 09:29:27;;;;;;;4.80;3.30;;;11.80;99.90;;;;;;5072186;28;20199;-85
2023/12/24 09:31:53;;;;;;;7.13;3.23;;;11.80;99.90;;;;;;5071336;28;20195;-84
2023/12/24 09:34:19;;;;;;;5.73;3.17;;;11.90;99.90;;;;;;5071859;28;20179;-90
2023/12/24 09:36:44;;;;;;;7.37;3.63;;;11.90;99.90;;;;;;5072253;28;20535;-84
2023/12/24 09:39:10;;;;;;;7.33;4.03;;;11.90;99.90;;;;;;5071527;28;20175;-88
2023/12/24 09:41:37;;;;;;;4.60;3.27;;;11.90;99.90;;;;;;5071616;28;20554;-89
2023/12/24 09:44:04;;;;;;;5.67;3.30;;;11.90;99.90;;;;;;5071965;28;20216;-86
2023/12/24 09:46:29;;;;;;;6.40;3.30;;;11.90;99.90;;;;;;5071608;28;20226;-86
2023/12/24 09:48:55;;;;;;;5.90;3.70;;;12.00;99.90;;;;;;5071756;28;20213;-85
2023/12/24 09:51:23;;;;;;;6.43;4.33;;;12.00;99.90;;;;;;5072363;28;20178;-88
2023/12/24 09:53:49;;;;;;;6.40;3.70;;;12.00;99.90;;;;;;5071497;28;20652;-87
2023/12/24 09:56:15;;;;;;;6.00;4.03;;;12.00;99.90;;;;;;5076591;28;20179;-86
2023/12/24 09:58:45;;;;;;;6.90;3.67;;;12.10;99.90;;;;;;5075729;28;20185;-87
2023/12/24 10:01:10;;;;;;;5.23;3.73;;;12.00;99.90;;;;;;5074794;28;20545;-86
2023/12/24 10:03:36;;;;;;;7.00;4.53;;;12.00;99.90;;;;;;5075812;28;20181;-89
2023/12/24 10:06:07;;;;;;;6.83;3.30;;;12.10;99.90;;;;;;5075546;28;20685;-89
2023/12/24 10:08:34;;;;;;;6.00;3.63;;;12.10;99.90;;;;;;5075029;28;20221;-89
2023/12/24 10:11:22;;;;;;;7.43;3.20;;;12.10;99.90;;;;;;5075686;28;20226;-89
2023/12/24 10:13:59;;;;;;;4.97;3.20;;;12.10;99.90;;;;;;5075890;28;20178;-93
2023/12/24 10:16:25;;;;;;;6.33;3.30;;;12.10;99.90;;;;;;5076271;28;20164;-94
2023/12/24 10:18:51;;;;;;;4.87;3.27;;;12.00;99.90;;;;;;5076370;28;20175;-91
2023/12/24 10:21:18;;;;;;;6.07;3.30;;;12.00;99.90;;;;;;5075680;28;20187;-91
2023/12/24 10:23:44;;;;;;;6.43;3.63;;;12.00;99.90;;;;;;5075446;28;20196;-88
2023/12/24 10:26:11;;;;;;;4.80;3.70;;;12.00;99.90;;;;;;5075374;28;20803;-91
2023/12/24 10:28:51;;;;;;;6.57;3.60;;;12.00;99.90;;;;;;5075632;28;20169;-86
2023/12/24 10:31:17;;;;;;;5.33;3.47;;;12.00;99.90;;;;;;5074900;28;20182;-91
2023/12/24 10:33:44;;;;;;;6.63;3.40;;;12.00;99.90;;;;;;5075422;28;20285;-88
2023/12/24 10:36:10;;;;;;;5.70;3.83;;;11.90;99.90;;;;;;5074630;28;20241;-92
2023/12/24 10:38:37;;;;;;;6.40;4.10;;;11.90;99.90;;;;;;5075877;28;20592;-91
2023/12/24 10:41:06;;;;;;;5.43;3.20;;;11.90;99.90;;;;;;5075588;28;20243;-89
2023/12/24 10:43:32;;;;;;;6.53;3.90;;;11.80;99.90;;;;;;5075838;28;20184;-91
2023/12/24 10:45:57;;;;;;;7.83;3.70;;;11.90;99.90;;;;;;5076121;28;20695;-90
2023/12/24 10:48:24;;;;;;;7.17;3.93;;;11.90;99.90;;;;;;5079465;28;20703;-87
2023/12/24 10:50:50;;;;;;;5.37;3.57;;;11.90;99.90;;;;;;5075838;28;20258;-89
2023/12/24 10:53:16;;;;;;;6.20;3.77;;;11.80;99.90;;;;;;5075370;28;20645;-83
2023/12/24 10:55:54;;;;;;;6.33;3.63;;;11.90;99.90;;;;;;5076228;28;20265;-92
2023/12/24 10:58:59;;;;;;;6.50;3.70;;;11.80;99.90;;;;;;5075193;28;20160;-86
2023/12/24 11:01:25;;;;;;;4.97;3.00;;;11.80;99.90;;;;;;5064178;28;20187;-92
2023/12/24 11:03:52;;;;;;;4.40;3.20;;;11.80;99.90;;;;;;5075216;28;20588;-86
2023/12/24 11:06:36;;;;;;;3.63;3.27;;;11.80;99.90;;;;;;5075312;28;20173;-93
2023/12/24 11:09:22;;;;;;;5.23;3.40;;;11.80;99.90;;;;;;5076671;28;20178;-96
2023/12/24 11:11:54;;;;;;;4.83;3.50;;;11.80;99.90;;;;;;5077807;28;20266;-85
2023/12/24 11:14:44;;;;;;;8.07;4.33;;;11.80;99.90;;;;;;5078375;28;20279;-88
2023/12/24 11:17:41;;;;;;;4.23;3.30;;;11.80;99.90;;;;;;5070419;28;20179;-83
2023/12/24 11:20:28;;;;;;;8.17;3.40;;;11.80;99.90;;;;;;5060189;28;20182;-90
2023/12/24 11:23:06;;;;;;;4.47;3.20;;;11.90;99.90;;;;;;5064557;28;20185;-87
2023/12/24 11:25:47;;;;;;;4.57;2.60;;;11.90;99.90;;;;;;5060809;28;20212;-87
2023/12/24 11:28:23;;;;;;;4.17;2.93;;;11.90;99.90;;;;;;5074170;28;20197;-89
2023/12/24 11:30:51;;;;;;;3.93;2.90;;;11.90;99.90;;;;;;5075248;28;20175;-84
2023/12/24 11:33:44;;;;;;;5.23;2.97;;;11.80;99.90;;;;;;5075041;28;20172;-83
2023/12/24 11:36:12;;;;;;;3.87;2.70;;;11.80;99.90;;;;;;5073746;28;20185;-90
2023/12/24 11:38:39;;;;;;;2.97;2.43;;;11.80;99.90;;;;;;5073908;28;20172;-84
2023/12/24 11:41:06;;;;;;;3.27;2.97;;;11.80;99.90;;;;;;5073990;28;20190;-86
2023/12/24 11:43:32;;;;;;;3.27;2.60;;;11.90;99.90;;;;;;5073251;28;20644;-83
2023/12/24 11:45:58;;;;;;;3.40;2.80;;;11.80;99.90;;;;;;5073522;28;20187;-88
2023/12/24 11:48:29;;;;;;;5.40;3.00;;;11.80;99.90;;;;;;5057389;28;20175;-82
2023/12/24 11:51:08;;;;;;;4.83;3.17;;;11.90;99.90;;;;;;5054371;28;20255;-87
2023/12/24 11:53:36;;;;;;;4.33;2.97;;;11.90;99.90;;;;;;5053173;28;20201;-85
2023/12/24 11:56:07;;;;;;;4.97;2.67;;;12.00;99.90;;;;;;5053915;28;20172;-86
2023/12/24 11:58:32;;;;;;;4.43;2.77;;;12.00;99.90;;;;;;5054331;28;20170;-85
2023/12/24 12:01:00;;;;;;;4.07;2.80;;;12.00;99.90;;;;;;5053140;28;20179;-88
2023/12/24 12:03:25;;;;;;;4.20;3.00;;;12.00;99.90;;;;;;5052939;28;20210;-86
2023/12/24 12:05:51;;;;;;;5.07;2.97;;;12.10;99.90;;;;;;5051886;28;20181;-90
2023/12/24 12:08:17;;;;;;;3.50;3.00;;;12.10;99.90;;;;;;5052569;28;20631;-87
2023/12/24 12:10:42;;;;;;;3.73;2.93;;;12.20;99.90;;;;;;5052466;28;20659;-82
2023/12/24 12:13:08;;;;;;;5.90;3.30;;;12.20;99.90;;;;;;5053563;28;20179;-84
2023/12/24 12:15:35;;;;;;;3.50;3.00;;;12.30;99.90;;;;;;5054090;28;20655;-90
2023/12/24 12:18:00;;;;;;;4.67;3.20;;;12.30;99.90;;;;;;5055091;28;20199;-87
2023/12/24 12:20:26;;;;;;;4.60;2.97;;;12.30;99.90;;;;;;5053567;28;20637;-91
2023/12/24 12:22:52;;;;;;;5.83;3.10;;;12.40;99.90;;;;;;5053418;28;20551;-89
2023/12/24 12:25:17;;;;;;;4.37;2.97;;;12.40;99.90;;;;;;5052604;28;20221;-85
2023/12/24 12:27:43;;;;;;;5.00;3.17;;;12.50;99.90;;;;;;5051679;28;20234;-84
2023/12/24 12:30:09;;;;;;;6.03;3.23;;;12.60;99.90;;;;;;5051529;28;20199;-88
2023/12/24 12:32:35;;;;;;;4.67;2.87;;;12.70;99.90;;;;;;5061072;28;20272;-82
2023/12/24 12:35:01;;;;;;;4.10;2.23;;;12.70;99.90;;;;;;5071403;28;20679;-83
2023/12/24 12:37:28;;;;;;;5.77;2.00;;;12.80;99.90;;;;;;5071473;28;20202;-83
2023/12/24 12:39:54;;;;;;;4.63;2.20;;;12.90;99.90;;;;;;5073845;28;20235;-85
2023/12/24 12:42:19;;;;;;;3.50;1.90;;;12.90;99.90;;;;;;5072038;28;20173;-84
2023/12/24 12:44:45;;;;;;;3.47;1.77;;;13.00;99.90;;;;;;5071299;28;20212;-89
2023/12/24 12:47:14;;;;;;;3.67;1.60;;;13.10;99.90;;;;;;5072753;28;20168;-84